createdAt,value
2018-09-10T00:04:12.340Z,101720.84
2018-09-10T00:09:15.850Z,101728.75
2018-09-10T00:14:19.342Z,101740.20
2018-09-10T00:19:22.639Z,101729.51
2018-09-10T00:24:25.830Z,101729.64
2018-09-10T00:29:29.081Z,101738.59
2018-09-10T00:34:32.233Z,101733.67
2018-09-10T00:39:35.415Z,101740.58
2018-09-10T00:44:38.744Z,101744.53
2018-09-10T00:49:42.343Z,101739.86
2018-09-10T00:54:45.849Z,101737.25
2018-09-10T00:59:49.187Z,101741.56
2018-09-10T01:04:52.438Z,101732.63
2018-09-10T01:09:55.687Z,101731.92
2018-09-10T01:14:58.940Z,101727.40
2018-09-10T01:20:02.185Z,101714.73
2018-09-10T01:25:05.366Z,101710.20
2018-09-10T01:30:08.714Z,101721.45
2018-09-10T01:35:11.971Z,101718.45
2018-09-10T01:40:15.218Z,101717.60
2018-09-10T01:45:18.555Z,101703.14
2018-09-10T01:50:21.805Z,101703.20
2018-09-10T01:55:25.145Z,101696.18
2018-09-10T02:00:28.591Z,101695.44
2018-09-10T02:05:31.724Z,101698.52
2018-09-10T02:10:34.959Z,101694.41
2018-09-10T02:15:38.705Z,101692.05
2018-09-10T02:20:41.988Z,101690.70
2018-09-10T02:25:46.219Z,101698.11
2018-09-10T02:30:49.408Z,101704.76
2018-09-10T02:35:52.697Z,101695.33
2018-09-10T02:40:55.918Z,101701.98
2018-09-10T02:45:59.248Z,101712.66
2018-09-10T02:51:02.441Z,101712.25
2018-09-10T02:56:05.576Z,101704.84
2018-09-10T03:01:08.929Z,101708.62
2018-09-10T03:06:12.414Z,101706.48
2018-09-10T03:11:15.763Z,101694.72
2018-09-10T03:16:18.898Z,101695.42
2018-09-10T03:21:22.203Z,101703.61
2018-09-10T03:26:25.379Z,101700.35
2018-09-10T03:36:55.506Z,101701.84
2018-09-10T03:42:04.360Z,101703.67
2018-09-10T03:47:13.502Z,101704.95
2018-09-10T03:52:23.179Z,101717.19
2018-09-10T03:57:36.152Z,101712.69
2018-09-10T04:02:39.360Z,101709.66
2018-09-10T04:07:48.195Z,101710.18
2018-09-10T04:12:56.952Z,101706.59
2018-09-10T04:18:05.821Z,101703.83
2018-09-10T04:23:14.779Z,101704.41
2018-09-10T04:28:25.689Z,101698.83
2018-09-10T04:33:34.616Z,101700.23
2018-09-10T04:38:43.693Z,101691.84
2018-09-10T04:43:52.786Z,101691.64
2018-09-10T04:48:55.888Z,101703.74
2018-09-10T04:54:04.753Z,101704.43
2018-09-10T04:59:13.980Z,101705.27
2018-09-10T05:04:22.810Z,101698.58
2018-09-10T05:09:31.804Z,101695.58
2018-09-10T05:14:40.816Z,101710.12
2018-09-10T05:19:49.620Z,101717.16
2018-09-10T05:24:52.757Z,101724.75
2018-09-10T05:30:01.689Z,101731.44
2018-09-10T05:35:12.943Z,101721.73
2018-09-10T05:40:16.705Z,101715.55
2018-09-10T05:45:25.431Z,101724.17
2018-09-10T05:50:34.314Z,101722.88
2018-09-10T05:55:43.360Z,101725.19
2018-09-10T06:00:53.385Z,101717.70
2018-09-10T06:06:02.976Z,101711.09
2018-09-10T06:11:12.984Z,101705.78
2018-09-10T06:16:21.591Z,101716.14
2018-09-10T06:21:25.659Z,101717.77
2018-09-10T06:26:34.393Z,101712.45
2018-09-10T06:31:43.545Z,101708.00
2018-09-10T06:36:53.332Z,101706.50
2018-09-10T06:41:56.474Z,101702.64
2018-09-10T06:47:05.144Z,101704.70
2018-09-10T06:52:08.360Z,101703.80
2018-09-10T06:57:12.104Z,101706.12
2018-09-10T07:02:15.317Z,101706.96
2018-09-10T07:07:18.543Z,101708.02
2018-09-10T07:12:21.801Z,101719.59
2018-09-10T07:17:25.076Z,101712.05
2018-09-10T07:22:28.324Z,101703.45
2018-09-10T07:27:31.573Z,101702.83
2018-09-10T07:32:34.718Z,101711.84
2018-09-10T07:37:38.112Z,101715.03
2018-09-10T07:42:41.421Z,101710.21
2018-09-10T07:47:44.695Z,101702.30
2018-09-10T07:52:47.998Z,101703.41
2018-09-10T07:57:51.266Z,101705.41
2018-09-10T08:02:55.101Z,101704.97
2018-09-10T08:07:58.319Z,101702.11
2018-09-10T08:13:01.568Z,101697.95
2018-09-10T08:18:05.129Z,101703.08
2018-09-10T08:23:08.356Z,101697.67
2018-09-10T08:28:11.919Z,101699.27
2018-09-10T08:33:15.218Z,101705.55
2018-09-10T08:38:20.552Z,101703.14
2018-09-10T08:43:23.740Z,101692.86
2018-09-10T08:48:27.076Z,101684.80
2018-09-10T08:53:30.382Z,101689.02
2018-09-10T08:58:33.756Z,101686.06
2018-09-10T09:03:36.957Z,101689.99
2018-09-10T09:08:40.529Z,101690.01
2018-09-10T09:13:43.975Z,101685.23
2018-09-10T09:18:47.406Z,101681.36
2018-09-10T09:23:50.595Z,101683.80
2018-09-10T09:28:54.054Z,101673.48
2018-09-10T09:33:57.329Z,101664.41
2018-09-10T09:39:00.653Z,101661.61
2018-09-10T09:44:03.986Z,101651.22
2018-09-10T09:49:07.204Z,101638.08
2018-09-10T09:54:10.682Z,101644.07
2018-09-10T09:59:13.942Z,101637.14
2018-09-10T10:04:17.200Z,101638.33
2018-09-10T10:09:20.398Z,101637.33
2018-09-10T10:14:23.620Z,101637.63
2018-09-10T10:19:27.115Z,101640.50
2018-09-10T10:24:30.303Z,101635.66
2018-09-10T10:29:34.885Z,101629.71
2018-09-10T10:34:38.442Z,101618.52
2018-09-10T10:39:42.655Z,101613.03
2018-09-10T10:44:46.548Z,101613.00
2018-09-10T10:49:49.905Z,101614.77
2018-09-10T10:54:53.099Z,101612.68
2018-09-10T10:59:56.408Z,101614.89
2018-09-10T11:04:59.703Z,101619.09
2018-09-10T11:10:03.026Z,101619.91
2018-09-10T11:15:06.342Z,101624.41
2018-09-10T11:20:09.612Z,101619.75
2018-09-10T11:25:13.719Z,101618.58
2018-09-10T11:30:16.899Z,101615.77
2018-09-10T11:35:20.716Z,101623.83
2018-09-10T11:40:23.929Z,101611.69
2018-09-10T11:45:27.143Z,101610.30
2018-09-10T11:50:30.352Z,101602.83
2018-09-10T11:55:33.662Z,101600.83
2018-09-10T12:00:37.645Z,101600.44
2018-09-10T12:05:41.412Z,101591.22
2018-09-10T12:10:44.616Z,101592.48
2018-09-10T12:15:48.102Z,101592.31
2018-09-10T12:20:51.341Z,101591.30
2018-09-10T12:25:55.000Z,101597.67
2018-09-10T12:30:58.231Z,101591.72
2018-09-10T12:36:01.473Z,101583.03
2018-09-10T12:41:04.868Z,101577.17
2018-09-10T12:46:08.143Z,101582.05
2018-09-10T12:51:11.482Z,101583.11
2018-09-10T12:56:14.693Z,101584.97
2018-09-10T13:01:17.928Z,101583.28
2018-09-10T13:06:21.108Z,101576.33
2018-09-10T13:11:24.305Z,101575.94
2018-09-10T13:16:27.602Z,101573.11
2018-09-10T13:21:30.947Z,101569.47
2018-09-10T13:26:34.250Z,101573.80
2018-09-10T13:31:37.509Z,101584.23
2018-09-10T13:36:41.138Z,101581.23
2018-09-10T13:41:44.547Z,101585.54
2018-09-10T13:46:48.270Z,101590.61
2018-09-10T13:51:51.594Z,101582.68
2018-09-10T13:56:54.788Z,101580.76
2018-09-10T14:01:58.220Z,101582.95
2018-09-10T14:07:01.402Z,101595.08
2018-09-10T14:12:04.748Z,101583.67
2018-09-10T14:17:08.216Z,101583.34
2018-09-10T14:22:11.752Z,101572.33
2018-09-10T14:27:15.410Z,101572.41
2018-09-10T14:32:18.733Z,101565.74
2018-09-10T14:37:22.037Z,101563.65
2018-09-10T14:42:25.304Z,101567.63
2018-09-10T14:47:28.536Z,101568.19
2018-09-10T14:52:31.911Z,101563.69
2018-09-10T14:57:35.353Z,101573.03
2018-09-10T15:02:38.615Z,101564.06
2018-09-10T15:07:41.993Z,101553.81
2018-09-10T15:12:46.070Z,101546.21
2018-09-10T15:17:49.274Z,101550.44
2018-09-10T15:22:52.635Z,101552.26
2018-09-10T15:27:55.803Z,101557.56
2018-09-10T15:32:59.023Z,101566.16
2018-09-10T15:38:03.133Z,101569.09
2018-09-10T15:43:06.599Z,101570.26
2018-09-10T15:48:10.179Z,101563.59
2018-09-10T15:53:13.575Z,101572.44
2018-09-10T15:58:16.837Z,101561.52
2018-09-10T16:03:20.128Z,101551.91
2018-09-10T16:08:23.342Z,101556.93
2018-09-10T16:13:26.526Z,101556.02
2018-09-10T16:18:29.695Z,101572.75
2018-09-10T16:23:33.383Z,101582.87
2018-09-10T16:28:37.149Z,101590.30
2018-09-10T16:33:40.407Z,101599.30
2018-09-10T16:38:43.698Z,101606.92
2018-09-10T16:43:46.975Z,101628.25
2018-09-10T16:48:50.281Z,101632.11
2018-09-10T16:53:53.605Z,101637.44
2018-09-10T16:58:56.842Z,101629.78
2018-09-10T17:04:00.082Z,101624.08
2018-09-10T17:09:03.798Z,101616.66
2018-09-10T17:14:07.159Z,101600.04
2018-09-10T17:19:10.457Z,101593.28
2018-09-10T17:24:13.758Z,101595.38
